Time;durP1;ratioP1;P1;durP2;ratioP2;P2;SDS_P1;SDS_P2;PMS_P1;PMS_P2;Temp;Humidity;BMP_temperature;BMP_pressure;BME280_temperature;BME280_humidity;BME280_pressure;Samples;Min_cycle;Max_cycle;Signal;HPM_P1;HPM_P2
2022/08/10 00:00:45;;;;;;;0.90;0.88;;;18.70;57.50;18.80;101666.00;;;;4996867;28;87024;-63
2022/08/10 00:03:11;;;;;;;1.98;0.80;;;18.70;57.60;18.70;101657.00;;;;4996803;27;88878;-64
2022/08/10 00:05:37;;;;;;;5.20;1.08;;;18.60;57.70;18.70;101665.00;;;;5008922;27;116806;-63
2022/08/10 00:08:03;;;;;;;0.80;0.80;;;18.60;58.00;18.70;101651.00;;;;4994696;27;102652;-63
2022/08/10 00:10:29;;;;;;;3.17;1.48;;;18.50;58.00;18.60;101656.00;;;;4999033;27;108896;-63
2022/08/10 00:12:54;;;;;;;2.08;1.48;;;18.50;58.00;18.60;101662.00;;;;5014246;27;118565;-63
2022/08/10 00:15:22;;;;;;;1.02;0.95;;;18.50;58.10;18.50;101660.00;;;;5000390;27;115298;-63
2022/08/10 00:17:48;;;;;;;2.90;1.45;;;18.40;58.20;18.50;101664.00;;;;5010960;27;87535;-63
2022/08/10 00:20:15;;;;;;;2.92;1.23;;;18.40;58.40;18.40;101663.00;;;;5015627;27;87912;-63
2022/08/10 00:22:40;;;;;;;2.38;1.05;;;18.30;58.60;18.40;101653.00;;;;5014549;27;88766;-63
2022/08/10 00:25:07;;;;;;;1.83;1.17;;;18.30;58.70;18.30;101669.00;;;;5002268;27;112438;-63
2022/08/10 00:27:34;;;;;;;1.17;1.08;;;18.20;58.70;18.20;101659.00;;;;4995714;27;87775;-63
2022/08/10 00:29:59;;;;;;;1.33;1.23;;;18.20;58.90;18.20;101663.00;;;;5004861;27;87816;-63
2022/08/10 00:32:25;;;;;;;1.02;0.75;;;18.10;58.90;18.10;101665.00;;;;5015154;27;117600;-63
2022/08/10 00:34:51;;;;;;;1.45;1.35;;;18.00;59.10;18.10;101667.00;;;;5007250;27;119764;-63
2022/08/10 00:37:18;;;;;;;0.95;0.77;;;18.00;59.30;18.00;101669.00;;;;5009518;27;90212;-63
2022/08/10 00:39:45;;;;;;;1.13;1.02;;;17.90;59.60;17.90;101670.00;;;;5002163;27;87649;-63
2022/08/10 00:42:14;;;;;;;1.33;0.95;;;17.80;59.90;17.80;101667.00;;;;4995048;28;87613;-63
2022/08/10 00:44:45;;;;;;;1.20;1.00;;;17.80;60.20;17.80;101663.00;;;;5004173;27;87844;-63
2022/08/10 00:47:12;;;;;;;2.47;1.15;;;17.70;60.40;17.70;101648.00;;;;5015466;27;87698;-63
2022/08/10 00:49:39;;;;;;;2.10;0.90;;;17.70;60.60;17.70;101657.00;;;;4995972;27;87103;-63
2022/08/10 00:52:06;;;;;;;1.55;0.98;;;17.60;60.70;17.60;101659.00;;;;4995375;28;88097;-63
2022/08/10 00:54:35;;;;;;;0.90;0.90;;;17.50;60.70;17.60;101654.00;;;;4997305;27;88128;-63
2022/08/10 00:57:02;;;;;;;2.30;0.88;;;17.50;61.00;17.50;101655.00;;;;5005043;27;88716;-63
2022/08/10 00:59:33;;;;;;;2.28;1.00;;;17.40;61.10;17.50;101659.00;;;;4995260;27;94756;-63
2022/08/10 01:01:59;;;;;;;1.38;1.20;;;17.40;61.30;17.40;101650.00;;;;5007904;27;90806;-63
2022/08/10 01:04:25;;;;;;;0.93;0.93;;;17.30;61.50;17.40;101652.00;;;;5008552;27;108541;-63
2022/08/10 01:07:30;;;;;;;0.85;0.60;;;17.30;61.80;17.30;101648.00;;;;5010183;27;98204;-63
2022/08/10 01:10:46;;;;;;;1.55;1.45;;;17.30;62.30;17.30;101635.00;;;;5014830;27;87651;-63
2022/08/10 01:13:34;;;;;;;0.80;0.80;;;17.20;62.80;17.30;101637.00;;;;4992755;28;90075;-63
2022/08/10 01:16:33;;;;;;;1.20;1.10;;;17.20;63.20;17.20;101644.00;;;;4993944;27;87664;-63
2022/08/10 01:19:47;;;;;;;1.48;1.30;;;17.20;63.60;17.20;101626.00;;;;4997942;27;102357;-63
2022/08/10 01:22:44;;;;;;;1.08;0.85;;;17.20;63.90;17.20;101637.00;;;;4995343;28;87756;-63
2022/08/10 01:25:28;;;;;;;0.90;0.80;;;17.10;64.10;17.20;101645.00;;;;4994554;28;89193;-63
2022/08/10 01:28:12;;;;;;;1.13;0.90;;;17.10;64.20;17.20;101646.00;;;;5003206;27;88932;-62
2022/08/10 01:30:40;;;;;;;2.03;1.33;;;17.10;64.60;17.20;101646.00;;;;5011881;27;104945;-62
2022/08/10 01:33:21;;;;;;;2.67;1.48;;;17.10;64.80;17.10;101649.00;;;;5015869;27;108271;-62
2022/08/10 01:36:10;;;;;;;1.27;1.00;;;17.10;65.10;17.10;101640.00;;;;5016811;27;88793;-62
2022/08/10 01:38:41;;;;;;;1.88;1.40;;;17.10;65.30;17.20;101634.00;;;;5015809;27;101903;-63
2022/08/10 01:41:09;;;;;;;1.23;1.13;;;17.10;65.70;17.20;101645.00;;;;5016314;27;87989;-63
2022/08/10 01:43:41;;;;;;;2.50;1.27;;;17.10;65.80;17.20;101636.00;;;;5018551;27;93015;-62
2022/08/10 01:46:10;;;;;;;1.13;1.00;;;17.10;66.00;17.20;101644.00;;;;5018045;27;88799;-62
2022/08/10 01:48:42;;;;;;;1.45;1.35;;;17.10;66.20;17.20;101635.00;;;;5002060;27;99810;-62
2022/08/10 01:51:16;;;;;;;1.13;0.90;;;17.10;66.40;17.20;101632.00;;;;4996301;27;88626;-62
2022/08/10 01:53:55;;;;;;;1.52;1.05;;;17.10;66.50;17.10;101635.00;;;;5018400;27;87674;-62
2022/08/10 01:56:24;;;;;;;3.50;1.88;;;17.10;66.80;17.10;101624.00;;;;5014233;27;88908;-62
2022/08/10 01:58:59;;;;;;;1.25;1.15;;;17.00;67.00;17.00;101631.00;;;;5027431;27;87863;-62
2022/08/10 02:01:29;;;;;;;2.53;1.35;;;16.90;67.50;17.00;101625.00;;;;5015544;27;87631;-62
2022/08/10 02:04:05;;;;;;;2.03;1.15;;;16.90;68.60;16.90;101623.00;;;;5015793;27;88948;-62
2022/08/10 02:06:38;;;;;;;1.98;1.17;;;16.90;68.20;16.90;101630.00;;;;5012808;27;88398;-62
2022/08/10 02:09:06;;;;;;;1.20;0.80;;;16.80;68.50;16.80;101630.00;;;;5013924;27;87950;-62
2022/08/10 02:11:34;;;;;;;1.65;1.55;;;16.80;68.90;16.80;101632.00;;;;5017364;27;102787;-63
2022/08/10 02:14:02;;;;;;;1.67;1.42;;;16.70;69.10;16.80;101632.00;;;;5017998;27;87992;-62
2022/08/10 02:16:29;;;;;;;5.13;0.95;;;16.70;69.30;16.70;101637.00;;;;5016199;27;88969;-62
2022/08/10 02:18:57;;;;;;;4.80;0.85;;;16.70;69.80;16.70;101639.00;;;;4998862;27;118727;-62
2022/08/10 02:21:24;;;;;;;1.30;1.20;;;16.60;70.20;16.60;101639.00;;;;4997864;27;94347;-63
2022/08/10 02:23:50;;;;;;;6.80;1.55;;;16.50;70.80;16.50;101632.00;;;;5016102;27;87922;-63
2022/08/10 02:26:17;;;;;;;1.45;1.35;;;16.40;71.20;16.40;101633.00;;;;5014770;27;117492;-62
2022/08/10 02:28:43;;;;;;;3.70;1.67;;;16.40;71.70;16.30;101634.00;;;;5004356;27;87736;-62
2022/08/10 02:31:17;;;;;;;1.60;1.42;;;16.30;72.20;16.10;101638.00;;;;5011995;27;108761;-62
2022/08/10 02:33:46;;;;;;;2.35;1.20;;;16.10;72.60;16.10;101641.00;;;;5015225;27;100759;-61
2022/08/10 02:36:13;;;;;;;2.50;1.40;;;16.00;73.10;16.00;101637.00;;;;5017921;27;87738;-62
2022/08/10 02:38:50;;;;;;;1.85;1.40;;;15.90;73.60;15.90;101641.00;;;;5001335;27;109705;-62
2022/08/10 02:41:37;;;;;;;1.52;1.23;;;15.90;74.60;15.80;101641.00;;;;5016360;27;88857;-62
2022/08/10 02:44:58;;;;;;;1.23;1.13;;;15.80;75.30;15.70;101636.00;;;;5015078;27;87868;-62
2022/08/10 02:47:31;;;;;;;2.22;1.50;;;15.70;75.80;15.70;101641.00;;;;5016580;27;87945;-62
2022/08/10 02:50:06;;;;;;;4.33;1.60;;;15.60;76.20;15.60;101635.00;;;;5015973;27;101777;-63
2022/08/10 02:52:45;;;;;;;1.20;1.10;;;15.60;76.80;15.60;101636.00;;;;5017370;27;87711;-64
2022/08/10 02:55:29;;;;;;;4.73;1.60;;;15.50;77.30;15.50;101635.00;;;;5015543;27;88218;-64
2022/08/10 02:57:58;;;;;;;1.67;1.52;;;15.50;77.70;15.50;101635.00;;;;5005759;27;107955;-64
2022/08/10 03:00:25;;;;;;;3.53;1.60;;;15.40;78.00;15.40;101640.00;;;;5016394;27;88524;-64
2022/08/10 03:02:52;;;;;;;1.13;1.00;;;15.40;78.40;15.40;101629.00;;;;5017090;27;87553;-63
2022/08/10 03:05:19;;;;;;;0.90;0.80;;;15.30;78.70;15.30;101634.00;;;;5013316;27;100221;-63
2022/08/10 03:08:01;;;;;;;1.70;1.30;;;15.20;78.80;15.20;101642.00;;;;5010709;27;89857;-64
2022/08/10 03:10:30;;;;;;;1.43;0.93;;;15.20;79.10;15.20;101642.00;;;;5013518;27;89612;-63
2022/08/10 03:13:04;;;;;;;1.67;1.50;;;15.10;79.30;15.10;101642.00;;;;5015086;27;87788;-64
2022/08/10 03:15:33;;;;;;;2.07;1.33;;;15.10;79.70;15.00;101641.00;;;;5010470;27;87952;-63
2022/08/10 03:18:00;;;;;;;3.30;1.57;;;15.00;80.10;14.90;101634.00;;;;5007988;27;111075;-63
2022/08/10 03:20:37;;;;;;;1.90;1.67;;;14.90;80.50;14.80;101631.00;;;;4996817;27;88337;-63
2022/08/10 03:23:15;;;;;;;2.20;2.00;;;14.90;81.00;14.80;101630.00;;;;5012660;27;87757;-63
2022/08/10 03:25:43;;;;;;;1.70;1.33;;;14.80;81.20;14.70;101645.00;;;;5012399;27;87181;-63
2022/08/10 03:28:10;;;;;;;2.50;1.37;;;14.70;81.50;14.70;101643.00;;;;5021356;27;89282;-63
2022/08/10 03:30:36;;;;;;;1.77;1.27;;;14.70;81.70;14.70;101638.00;;;;5011427;27;88397;-64
2022/08/10 03:33:05;;;;;;;1.13;1.07;;;14.60;81.90;14.60;101638.00;;;;5010314;27;110481;-63
2022/08/10 03:35:31;;;;;;;1.40;1.30;;;14.60;82.40;14.60;101646.00;;;;4998311;27;88380;-64
2022/08/10 03:37:58;;;;;;;1.87;1.30;;;14.60;82.70;14.60;101641.00;;;;5000925;27;117041;-63
2022/08/10 03:40:25;;;;;;;2.23;1.60;;;14.50;83.00;14.50;101648.00;;;;5011239;27;109860;-63
2022/08/10 03:42:55;;;;;;;1.40;1.30;;;14.50;83.50;14.50;101653.00;;;;5011450;27;87687;-63
2022/08/10 03:45:22;;;;;;;1.70;1.60;;;14.40;83.80;14.40;101644.00;;;;4995801;27;97541;-64
2022/08/10 03:47:51;;;;;;;1.43;1.33;;;14.40;84.20;14.40;101660.00;;;;4998286;27;91797;-63
2022/08/10 03:50:17;;;;;;;1.30;1.03;;;14.40;84.40;14.40;101657.00;;;;5013962;27;118003;-63
2022/08/10 03:52:43;;;;;;;1.67;1.30;;;14.30;84.70;14.40;101650.00;;;;5013027;27;110717;-63
2022/08/10 03:55:11;;;;;;;2.17;1.40;;;14.30;84.90;14.30;101650.00;;;;5015351;27;109099;-63
2022/08/10 03:57:37;;;;;;;1.90;1.43;;;14.30;85.10;14.30;101652.00;;;;4999472;27;118451;-63
2022/08/10 04:00:04;;;;;;;1.87;1.77;;;14.30;85.20;14.30;101657.00;;;;5011907;27;117323;-64
2022/08/10 04:02:31;;;;;;;2.90;1.77;;;14.30;85.20;14.30;101658.00;;;;5008162;27;87612;-63
2022/08/10 04:04:57;;;;;;;3.40;2.47;;;14.30;85.40;14.30;101664.00;;;;5015057;27;107944;-64
2022/08/10 04:07:23;;;;;;;1.87;1.60;;;14.30;85.80;14.20;101671.00;;;;5011408;27;106287;-64
2022/08/10 04:09:50;;;;;;;1.17;1.03;;;14.20;86.00;14.20;101662.00;;;;5013292;27;115603;-63
2022/08/10 04:12:16;;;;;;;3.37;2.47;;;14.20;86.40;14.20;101661.00;;;;5012878;27;87986;-64
2022/08/10 04:14:42;;;;;;;1.90;1.57;;;14.10;86.60;14.20;101666.00;;;;5015240;27;87442;-63
2022/08/10 04:17:07;;;;;;;2.17;1.97;;;14.10;86.90;14.20;101670.00;;;;5016050;27;87916;-63
2022/08/10 04:19:47;;;;;;;1.70;1.60;;;14.10;87.20;14.20;101674.00;;;;5012589;27;116308;-64
2022/08/10 04:22:24;;;;;;;1.73;1.60;;;14.10;87.40;14.20;101674.00;;;;5012227;27;88715;-63
2022/08/10 04:24:57;;;;;;;4.20;1.60;;;14.10;87.50;14.20;101674.00;;;;5015950;27;87835;-64
2022/08/10 04:27:23;;;;;;;3.07;1.83;;;14.10;87.40;14.20;101674.00;;;;5013652;27;88744;-64
2022/08/10 04:29:50;;;;;;;2.03;1.93;;;14.20;87.40;14.20;101674.00;;;;5012595;27;117249;-63
2022/08/10 04:32:18;;;;;;;1.57;1.43;;;14.20;87.60;14.20;101683.00;;;;5006907;27;87902;-63
2022/08/10 04:34:45;;;;;;;2.97;1.90;;;14.10;87.90;14.20;101697.00;;;;5030851;27;102158;-63
2022/08/10 04:37:12;;;;;;;1.70;1.27;;;14.10;88.10;14.20;101686.00;;;;5012157;27;94645;-63
2022/08/10 04:39:39;;;;;;;3.20;1.67;;;14.20;88.20;14.30;101682.00;;;;5011810;27;117460;-63
2022/08/10 04:42:05;;;;;;;2.00;1.47;;;14.20;88.30;14.30;101689.00;;;;5004606;27;111350;-63
2022/08/10 04:44:31;;;;;;;1.90;1.50;;;14.20;88.30;14.30;101684.00;;;;5006310;27;102635;-64
2022/08/10 04:46:57;;;;;;;2.43;2.23;;;14.20;88.40;14.30;101682.00;;;;5013026;27;89349;-63
2022/08/10 04:49:23;;;;;;;3.63;2.13;;;14.30;88.50;14.40;101678.00;;;;4997261;27;117664;-64
2022/08/10 04:51:48;;;;;;;2.23;1.87;;;14.20;88.70;14.40;101681.00;;;;5000275;27;110462;-64
2022/08/10 04:54:14;;;;;;;2.03;1.53;;;14.30;89.00;14.50;101681.00;;;;5014769;27;109115;-64
2022/08/10 04:56:40;;;;;;;5.83;2.33;;;14.40;89.10;14.50;101682.00;;;;5015193;27;116893;-64
2022/08/10 04:59:09;;;;;;;2.47;1.67;;;14.40;89.30;14.60;101680.00;;;;5015357;27;87746;-64
2022/08/10 05:01:36;;;;;;;2.47;1.83;;;14.50;89.60;14.60;101676.00;;;;5012425;27;87504;-63
2022/08/10 05:04:02;;;;;;;1.93;1.83;;;14.60;89.80;14.70;101676.00;;;;4996180;27;86888;-63
2022/08/10 05:06:28;;;;;;;2.00;1.77;;;14.60;90.00;14.70;101677.00;;;;4994920;27;108989;-64
2022/08/10 05:08:54;;;;;;;3.67;2.40;;;14.60;90.00;14.80;101683.00;;;;5014251;27;117167;-64
2022/08/10 05:11:19;;;;;;;2.93;1.50;;;14.70;90.20;15.00;101688.00;;;;5014721;27;114122;-65
2022/08/10 05:13:45;;;;;;;2.93;2.00;;;14.80;90.30;15.20;101682.00;;;;4998260;28;108694;-64
2022/08/10 05:16:11;;;;;;;2.83;2.17;;;15.00;90.30;15.40;101674.00;;;;5008034;27;108560;-64
2022/08/10 05:18:36;;;;;;;2.40;1.90;;;15.20;90.30;15.60;101680.00;;;;5017965;27;88331;-64
2022/08/10 05:21:02;;;;;;;1.93;1.80;;;15.40;90.30;15.80;101692.00;;;;5017264;27;110698;-64
2022/08/10 05:23:28;;;;;;;4.03;2.17;;;15.60;90.20;16.10;101676.00;;;;5018374;27;87756;-64
2022/08/10 05:25:54;;;;;;;2.33;2.05;;;15.80;90.00;16.40;101685.00;;;;5017895;27;117802;-64
2022/08/10 05:28:19;;;;;;;2.28;2.08;;;16.10;89.80;16.60;101683.00;;;;5017755;27;116658;-64
2022/08/10 05:30:45;;;;;;;4.18;2.42;;;16.40;89.10;16.90;101686.00;;;;5017720;27;110899;-64
2022/08/10 05:33:11;;;;;;;2.90;1.67;;;16.60;88.60;17.20;101695.00;;;;5016321;27;93620;-64
2022/08/10 05:35:37;;;;;;;6.32;1.80;;;16.90;88.10;17.50;101684.00;;;;5017626;27;103179;-64
2022/08/10 05:38:04;;;;;;;2.38;1.83;;;17.20;87.80;17.70;101692.00;;;;5018089;27;89421;-64
2022/08/10 05:40:30;;;;;;;2.10;1.75;;;17.40;87.50;17.90;101692.00;;;;5012221;27;87781;-64
2022/08/10 05:42:56;;;;;;;2.42;1.45;;;17.60;87.40;18.00;101693.00;;;;5010941;27;108354;-64
2022/08/10 05:45:26;;;;;;;2.78;1.83;;;17.80;87.30;18.10;101686.00;;;;5018378;27;89234;-63
2022/08/10 05:47:52;;;;;;;1.48;1.33;;;17.90;87.10;18.20;101692.00;;;;5012504;27;88726;-63
2022/08/10 05:50:23;;;;;;;2.88;1.67;;;18.00;86.80;18.20;101692.00;;;;4998655;28;99087;-63
2022/08/10 05:52:49;;;;;;;1.70;1.58;;;18.10;86.70;18.30;101699.00;;;;5012246;27;89000;-63
2022/08/10 05:55:15;;;;;;;5.72;1.92;;;18.10;86.30;18.40;101697.00;;;;5016150;27;88696;-63
2022/08/10 05:57:41;;;;;;;2.00;1.60;;;18.20;86.00;18.40;101701.00;;;;5004374;27;111104;-63
2022/08/10 06:00:11;;;;;;;2.53;1.55;;;18.20;85.70;18.50;101702.00;;;;4997393;27;109482;-64
2022/08/10 06:02:42;;;;;;;3.17;1.42;;;18.30;85.50;18.50;101704.00;;;;5008052;27;87639;-64
2022/08/10 06:05:25;;;;;;;2.13;1.92;;;18.30;85.10;18.60;101708.00;;;;4998520;27;89203;-64
2022/08/10 06:08:08;;;;;;;2.53;1.90;;;18.40;84.90;18.60;101706.00;;;;5011181;27;109136;-64
2022/08/10 06:10:36;;;;;;;2.53;1.80;;;18.40;84.20;18.60;101705.00;;;;5015999;27;87984;-64
2022/08/10 06:15:52;;;;;;;1.35;1.23;;;18.50;83.30;18.70;101715.00;;;;4998506;27;88054;-64
2022/08/10 06:18:19;;;;;;;4.15;1.98;;;18.60;83.10;18.80;101713.00;;;;4997326;28;89691;-64
2022/08/10 06:20:46;;;;;;;1.73;1.27;;;18.60;82.80;18.80;101717.00;;;;5003712;27;87760;-64
2022/08/10 06:23:12;;;;;;;4.22;1.70;;;18.70;82.70;18.90;101723.00;;;;5001948;27;87743;-64
2022/08/10 06:25:38;;;;;;;4.47;1.90;;;18.70;82.60;19.00;101712.00;;;;4997525;28;105255;-64
2022/08/10 06:28:08;;;;;;;1.35;1.25;;;18.80;82.50;19.10;101716.00;;;;4998418;27;89303;-64
2022/08/10 06:30:35;;;;;;;1.70;1.60;;;18.80;82.20;19.10;101722.00;;;;5016257;27;97555;-64
2022/08/10 06:33:02;;;;;;;4.35;2.55;;;18.90;82.20;19.20;101728.00;;;;5013993;27;108877;-64
2022/08/10 06:35:32;;;;;;;3.47;1.60;;;19.00;82.10;19.30;101729.00;;;;5014796;27;117364;-63
2022/08/10 06:38:01;;;;;;;3.03;1.77;;;19.10;81.90;19.40;101720.00;;;;5016235;27;87870;-63
2022/08/10 06:40:34;;;;;;;4.03;2.55;;;19.20;81.60;19.50;101717.00;;;;5014254;27;100124;-64
2022/08/10 06:43:05;;;;;;;3.40;2.08;;;19.30;81.40;19.60;101727.00;;;;5004332;27;97957;-64
2022/08/10 06:45:38;;;;;;;2.50;1.70;;;19.40;81.30;19.90;101711.00;;;;4995898;28;88150;-64
2022/08/10 06:48:27;;;;;;;2.03;1.83;;;19.60;81.30;20.30;101712.00;;;;5012111;27;91670;-64
2022/08/10 06:51:00;;;;;;;1.58;1.48;;;19.90;81.10;20.60;101722.00;;;;5015936;27;89087;-64
2022/08/10 06:53:36;;;;;;;1.60;1.38;;;20.30;80.70;20.90;101727.00;;;;5015713;27;98098;-64
2022/08/10 06:56:10;;;;;;;1.92;1.77;;;20.60;79.90;21.20;101723.00;;;;5014945;27;92724;-63
2022/08/10 06:58:51;;;;;;;2.70;1.98;;;20.90;79.10;21.30;101728.00;;;;5012020;27;109877;-63
2022/08/10 07:01:24;;;;;;;3.30;1.67;;;21.10;78.30;21.50;101720.00;;;;5011825;27;97959;-64
2022/08/10 07:04:09;;;;;;;5.25;2.40;;;21.20;77.80;21.60;101726.00;;;;5015331;27;89987;-63
2022/08/10 07:06:40;;;;;;;3.25;1.95;;;21.30;77.20;21.70;101718.00;;;;5014927;27;100805;-61
2022/08/10 07:09:08;;;;;;;4.68;2.58;;;21.40;76.90;21.90;101723.00;;;;5016680;27;88339;-63
2022/08/10 07:11:36;;;;;;;3.85;2.97;;;21.60;77.10;21.90;101720.00;;;;4996563;27;87903;-65
2022/08/10 07:14:02;;;;;;;1.63;1.45;;;21.70;75.80;22.10;101719.00;;;;5025515;27;107227;-62
2022/08/10 07:16:30;;;;;;;3.97;1.75;;;21.80;76.40;22.40;101715.00;;;;5015109;27;118802;-62
2022/08/10 07:18:59;;;;;;;4.25;2.25;;;22.00;76.10;22.80;101723.00;;;;4996975;27;117777;-63
2022/08/10 07:21:26;;;;;;;1.80;1.48;;;22.40;74.80;23.20;101725.00;;;;5012170;27;87850;-63
2022/08/10 07:23:53;;;;;;;1.65;1.45;;;22.80;73.80;23.60;101721.00;;;;5011609;27;88100;-63
2022/08/10 07:26:21;;;;;;;2.17;1.55;;;23.20;72.90;24.00;101722.00;;;;5011880;27;87751;-63
2022/08/10 07:28:50;;;;;;;5.40;1.98;;;23.70;71.80;24.40;101718.00;;;;5011826;27;107786;-64
2022/08/10 07:31:19;;;;;;;1.95;1.63;;;24.00;70.50;24.80;101719.00;;;;5012240;27;88042;-63
2022/08/10 07:33:48;;;;;;;4.00;1.77;;;24.40;69.30;25.20;101722.00;;;;5015848;27;86972;-63
2022/08/10 07:36:17;;;;;;;1.67;1.58;;;24.70;67.80;25.50;101712.00;;;;5015753;27;96547;-63
2022/08/10 07:38:43;;;;;;;3.97;1.50;;;25.00;66.10;25.70;101718.00;;;;4999326;27;109205;-63
2022/08/10 07:41:09;;;;;;;3.45;1.85;;;25.40;64.70;26.00;101720.00;;;;5010384;27;109640;-63
2022/08/10 07:43:38;;;;;;;4.45;1.50;;;25.60;63.70;26.30;101723.00;;;;5011714;27;108489;-63
2022/08/10 07:46:12;;;;;;;1.80;1.55;;;25.90;62.80;26.60;101720.00;;;;4996342;28;118344;-63
2022/08/10 07:48:45;;;;;;;4.30;2.10;;;26.30;61.90;26.90;101722.00;;;;4997294;27;88624;-63
2022/08/10 07:51:12;;;;;;;1.95;1.80;;;26.60;60.40;27.20;101727.00;;;;4997016;27;87785;-63
2022/08/10 07:53:45;;;;;;;3.28;1.85;;;26.80;59.30;27.50;101728.00;;;;5024513;27;108567;-64
2022/08/10 07:56:11;;;;;;;3.95;1.38;;;27.10;58.10;27.80;101731.00;;;;5013591;27;106821;-62
2022/08/10 07:59:02;;;;;;;6.88;1.80;;;27.40;57.40;28.00;101722.00;;;;5019735;27;115885;-63
2022/08/10 08:01:33;;;;;;;1.77;1.10;;;27.70;56.10;28.30;101719.00;;;;5001805;27;94836;-63
2022/08/10 08:04:00;;;;;;;1.90;1.60;;;28.00;55.20;28.50;101717.00;;;;5026869;27;88110;-63
2022/08/10 08:06:30;;;;;;;2.40;1.92;;;28.20;54.30;28.80;101719.00;;;;5014610;27;88765;-62
2022/08/10 08:08:57;;;;;;;1.70;1.58;;;28.50;53.40;29.00;101713.00;;;;5013088;27;103526;-62
2022/08/10 08:11:24;;;;;;;12.27;1.85;;;28.70;52.10;29.10;101714.00;;;;5016470;27;88012;-62
2022/08/10 08:13:50;;;;;;;1.63;1.48;;;28.90;50.80;29.30;101713.00;;;;4996929;27;107581;-63
2022/08/10 08:16:18;;;;;;;2.13;1.92;;;29.00;50.60;29.40;101718.00;;;;5012450;27;117200;-63
2022/08/10 08:18:46;;;;;;;2.22;1.80;;;29.10;49.80;29.50;101710.00;;;;4995756;28;88792;-62
2022/08/10 08:21:12;;;;;;;1.50;1.40;;;29.30;49.20;29.60;101707.00;;;;5011242;27;87739;-62
2022/08/10 08:23:39;;;;;;;2.25;1.27;;;29.40;48.60;29.80;101698.00;;;;5010115;27;96671;-62
2022/08/10 08:26:06;;;;;;;1.55;1.45;;;29.50;48.00;29.90;101709.00;;;;5005090;27;88096;-62
2022/08/10 08:28:33;;;;;;;2.55;1.63;;;29.60;47.60;30.10;101702.00;;;;4996443;27;111780;-64
2022/08/10 08:31:01;;;;;;;1.85;1.73;;;29.70;47.40;30.30;101708.00;;;;4996156;27;88727;-64
2022/08/10 08:33:28;;;;;;;2.00;1.55;;;29.90;47.10;30.50;101696.00;;;;4995639;28;87570;-64
2022/08/10 08:35:54;;;;;;;2.30;1.88;;;30.10;46.60;30.70;101699.00;;;;5003366;27;116143;-63
2022/08/10 08:38:22;;;;;;;2.45;1.38;;;30.30;46.40;30.80;101702.00;;;;5014287;27;118232;-63
2022/08/10 08:41:07;;;;;;;3.65;1.55;;;30.50;46.00;31.10;101705.00;;;;5015306;27;104036;-63
2022/08/10 08:44:02;;;;;;;1.52;1.25;;;30.70;45.00;31.30;101698.00;;;;5012828;27;88158;-63
2022/08/10 08:46:48;;;;;;;7.40;1.52;;;30.90;44.40;31.50;101709.00;;;;5009835;27;88364;-63
2022/08/10 08:49:43;;;;;;;4.65;1.42;;;31.10;40.70;31.40;101704.00;;;;4996186;27;111180;-63
2022/08/10 08:52:39;;;;;;;2.70;1.55;;;31.10;40.30;31.20;101696.00;;;;5011726;27;103151;-63
2022/08/10 08:55:42;;;;;;;3.15;1.73;;;30.90;38.80;30.90;101701.00;;;;5014104;27;87820;-63
2022/08/10 08:58:36;;;;;;;1.98;1.23;;;30.70;39.10;30.80;101702.00;;;;5009817;27;89023;-63
2022/08/10 09:01:44;;;;;;;1.40;1.00;;;30.60;38.70;30.70;101705.00;;;;4995332;28;89221;-63
2022/08/10 09:04:29;;;;;;;10.27;1.77;;;30.40;39.00;30.80;101698.00;;;;4995376;27;87815;-64
2022/08/10 09:07:42;;;;;;;1.75;1.25;;;30.40;39.80;31.00;101701.00;;;;5024235;27;91425;-64
2022/08/10 09:10:57;;;;;;;2.35;1.55;;;30.50;39.00;31.20;101700.00;;;;4995002;27;88020;-63
2022/08/10 09:13:36;;;;;;;2.08;1.58;;;30.70;39.30;31.30;101698.00;;;;4994637;27;88164;-63
2022/08/10 09:16:29;;;;;;;1.17;1.08;;;30.80;38.90;31.40;101693.00;;;;4995464;28;87800;-64
2022/08/10 09:19:24;;;;;;;1.48;1.25;;;30.90;38.90;31.60;101704.00;;;;4994710;27;87096;-63
2022/08/10 09:22:17;;;;;;;1.08;0.98;;;31.00;38.90;31.80;101706.00;;;;5024745;27;89014;-63
2022/08/10 09:25:22;;;;;;;6.97;2.35;;;31.30;37.70;31.70;101699.00;;;;5016065;27;87836;-63
2022/08/10 09:28:13;;;;;;;3.88;1.70;;;31.30;37.00;31.40;101698.00;;;;5000490;27;93563;-63
2022/08/10 09:30:50;;;;;;;1.17;1.08;;;31.10;36.90;31.20;101697.00;;;;5012458;27;98882;-63
2022/08/10 09:33:28;;;;;;;5.88;1.70;;;30.90;37.50;31.20;101692.00;;;;5003041;27;92122;-64
2022/08/10 09:36:22;;;;;;;6.47;2.00;;;30.70;38.00;31.40;101696.00;;;;5015961;27;108365;-64
2022/08/10 09:39:15;;;;;;;3.15;1.77;;;30.80;37.70;31.40;101699.00;;;;5012623;27;87768;-65
2022/08/10 09:42:26;;;;;;;2.05;1.73;;;30.90;38.00;31.50;101695.00;;;;5012679;27;103548;-64
2022/08/10 09:45:04;;;;;;;3.58;1.17;;;30.90;37.10;31.70;101700.00;;;;5014785;27;88126;-63
2022/08/10 09:47:59;;;;;;;1.77;0.88;;;31.10;36.70;31.90;101696.00;;;;5003514;27;104004;-64
2022/08/10 09:51:06;;;;;;;1.67;1.40;;;31.30;37.00;32.20;101684.00;;;;5027145;27;102706;-64
2022/08/10 09:54:06;;;;;;;1.75;0.85;;;31.50;36.80;32.60;101695.00;;;;5013805;27;88019;-63
2022/08/10 09:57:12;;;;;;;1.20;0.95;;;31.90;36.90;32.90;101689.00;;;;5003765;27;89125;-64
2022/08/10 09:59:53;;;;;;;1.30;1.20;;;32.30;35.60;33.20;101686.00;;;;4997749;27;89696;-63
2022/08/10 10:03:00;;;;;;;3.97;1.30;;;32.50;35.60;33.60;101690.00;;;;5012690;27;99423;-63
2022/08/10 10:06:04;;;;;;;1.42;1.02;;;32.90;35.10;33.70;101682.00;;;;5013235;27;88147;-64
2022/08/10 10:08:58;;;;;;;1.65;1.20;;;33.10;33.00;33.20;101684.00;;;;5012660;27;88624;-64
2022/08/10 10:11:54;;;;;;;1.80;1.20;;;32.80;32.30;33.10;101680.00;;;;5012813;27;87810;-66
2022/08/10 10:15:20;;;;;;;0.85;0.80;;;32.50;32.70;33.30;101681.00;;;;4998709;27;87630;-65
2022/08/10 10:18:06;;;;;;;1.95;1.20;;;32.60;33.60;33.80;101678.00;;;;4973158;28;87161;-64
2022/08/10 10:21:02;;;;;;;0.80;0.80;;;33.00;33.40;34.40;101667.00;;;;4997576;28;89387;-67
2022/08/10 10:24:31;;;;;;;1.02;0.93;;;33.40;33.00;34.80;101672.00;;;;4996934;28;88629;-63
2022/08/10 10:27:21;;;;;;;1.20;0.60;;;33.90;30.80;34.90;101667.00;;;;4968030;27;88950;-63
2022/08/10 10:29:59;;;;;;;0.90;0.90;;;34.10;30.50;34.60;101667.00;;;;4996615;27;99981;-65
2022/08/10 10:33:11;;;;;;;1.35;1.25;;;34.00;30.40;34.30;101669.00;;;;4997902;27;88301;-64
2022/08/10 10:35:51;;;;;;;1.30;1.02;;;33.80;29.90;33.70;101666.00;;;;5015163;27;87861;-64
2022/08/10 10:38:21;;;;;;;0.63;0.63;;;33.30;30.00;33.20;101676.00;;;;5017803;27;87594;-66
2022/08/10 10:41:03;;;;;;;2.22;0.80;;;32.90;30.60;33.30;101667.00;;;;5008017;27;87661;-63
2022/08/10 10:44:03;;;;;;;1.05;0.90;;;32.70;31.60;33.70;101664.00;;;;4997159;27;88723;-63
2022/08/10 10:47:08;;;;;;;0.90;0.90;;;32.90;31.70;34.20;101665.00;;;;5007627;27;87194;-64
2022/08/10 10:49:57;;;;;;;1.20;1.10;;;33.30;30.90;34.40;101657.00;;;;4995643;27;88065;-63
2022/08/10 10:52:50;;;;;;;2.53;1.25;;;33.60;30.50;34.60;101664.00;;;;4996522;28;87567;-65
2022/08/10 10:55:51;;;;;;;0.90;0.75;;;33.70;30.30;34.30;101665.00;;;;5007350;27;88845;-64
2022/08/10 10:58:47;;;;;;;1.15;0.82;;;33.70;29.10;33.80;101656.00;;;;5009360;27;89116;-63
2022/08/10 11:01:32;;;;;;;0.70;0.70;;;33.30;29.50;33.60;101652.00;;;;5015332;27;92007;-65
2022/08/10 11:04:08;;;;;;;2.30;1.30;;;33.10;30.10;33.30;101656.00;;;;5014665;27;90726;-63
2022/08/10 11:07:22;;;;;;;1.17;1.00;;;32.90;29.90;32.70;101645.00;;;;5004645;27;87788;-65
2022/08/10 11:10:02;;;;;;;1.33;0.80;;;32.50;29.50;32.30;101645.00;;;;5003674;27;95927;-65
2022/08/10 11:12:48;;;;;;;0.85;0.82;;;32.10;29.20;32.00;101652.00;;;;5014144;27;87534;-64
2022/08/10 11:15:33;;;;;;;0.77;0.65;;;31.70;29.50;31.90;101645.00;;;;5014442;27;87001;-65
2022/08/10 11:18:07;;;;;;;1.75;1.05;;;31.50;29.40;31.70;101636.00;;;;5003683;27;89775;-65
2022/08/10 11:21:09;;;;;;;5.68;1.00;;;31.30;29.40;31.60;101637.00;;;;5010758;27;87940;-65
2022/08/10 11:24:04;;;;;;;1.20;1.08;;;31.10;29.50;32.00;101641.00;;;;4987682;27;88780;-65